McVille, North Dakota
Current Conditions -  °F | °C
As of 6:58 PM on Tuesday 21 Oct 2014 (Local Time) from KRDR Reporting Station
Clear Clear  
Wind Chill: 60°   Ceiling: Unl
Heat Index: 60°   Visibility: 10mi
Dew Point: 43°   Wind: 18mph
Humidity: 53%   Direction: 150°SSE
Pressure: 29.83"   Gusts: 26mph
Location:  47.76°N, 98.18°W
Report Text: KRDR 212358Z AUTO 15016G23KT 10SM CLR 16/06 A2983 RMK AO2 PK WND 17030/09 SLP110 T01580061 10194 20158 57005
Loading
Personal Weather Stations






























Interactive Weather Map
Tropical Storm Tracking
New forecast layout! Learn more

10-Day Weather Forecast

Advertisements
Track Severe Weather on mobile